sensor_id;sensor_type;location;lat;lon;timestamp;P1;durP1;ratioP1;P2;durP2;ratioP2
19944;SDS011;10134;50.952;6.930;2023-01-19T00:00:57;10.63;;;5.50;;
19944;SDS011;10134;50.952;6.930;2023-01-19T00:03:24;10.23;;;5.50;;
19944;SDS011;10134;50.952;6.930;2023-01-19T00:05:52;11.47;;;6.10;;
19944;SDS011;10134;50.952;6.930;2023-01-19T00:08:20;11.10;;;6.00;;
19944;SDS011;10134;50.952;6.930;2023-01-19T00:10:48;11.60;;;5.27;;
19944;SDS011;10134;50.952;6.930;2023-01-19T00:13:19;8.30;;;5.03;;
19944;SDS011;10134;50.952;6.930;2023-01-19T00:15:46;10.13;;;5.53;;
19944;SDS011;10134;50.952;6.930;2023-01-19T00:18:13;7.37;;;4.20;;
19944;SDS011;10134;50.952;6.930;2023-01-19T00:20:41;11.13;;;4.70;;
19944;SDS011;10134;50.952;6.930;2023-01-19T00:23:10;7.57;;;4.63;;
19944;SDS011;10134;50.952;6.930;2023-01-19T00:25:38;7.77;;;4.77;;
19944;SDS011;10134;50.952;6.930;2023-01-19T00:28:11;8.40;;;4.90;;
19944;SDS011;10134;50.952;6.930;2023-01-19T00:30:40;8.40;;;4.70;;
19944;SDS011;10134;50.952;6.930;2023-01-19T00:33:09;10.93;;;4.80;;
19944;SDS011;10134;50.952;6.930;2023-01-19T00:35:39;9.30;;;5.47;;
19944;SDS011;10134;50.952;6.930;2023-01-19T00:38:08;6.77;;;4.67;;
19944;SDS011;10134;50.952;6.930;2023-01-19T00:40:37;7.87;;;5.30;;
19944;SDS011;10134;50.952;6.930;2023-01-19T00:43:04;10.17;;;5.53;;
19944;SDS011;10134;50.952;6.930;2023-01-19T00:45:32;8.83;;;4.70;;
19944;SDS011;10134;50.952;6.930;2023-01-19T00:47:59;9.17;;;5.03;;
19944;SDS011;10134;50.952;6.930;2023-01-19T00:50:27;12.13;;;4.43;;
19944;SDS011;10134;50.952;6.930;2023-01-19T00:52:56;7.40;;;4.67;;
19944;SDS011;10134;50.952;6.930;2023-01-19T00:55:27;6.80;;;3.93;;
19944;SDS011;10134;50.952;6.930;2023-01-19T00:57:56;8.27;;;4.80;;
19944;SDS011;10134;50.952;6.930;2023-01-19T01:00:23;6.97;;;4.40;;
19944;SDS011;10134;50.952;6.930;2023-01-19T01:02:51;6.43;;;4.70;;
19944;SDS011;10134;50.952;6.930;2023-01-19T01:05:20;9.00;;;4.70;;
19944;SDS011;10134;50.952;6.930;2023-01-19T01:07:48;5.90;;;4.23;;
19944;SDS011;10134;50.952;6.930;2023-01-19T01:10:20;7.60;;;5.00;;
19944;SDS011;10134;50.952;6.930;2023-01-19T01:12:49;6.97;;;4.50;;
19944;SDS011;10134;50.952;6.930;2023-01-19T01:15:25;6.37;;;4.00;;
19944;SDS011;10134;50.952;6.930;2023-01-19T01:17:53;6.40;;;4.23;;
19944;SDS011;10134;50.952;6.930;2023-01-19T01:20:22;5.97;;;4.03;;
19944;SDS011;10134;50.952;6.930;2023-01-19T01:22:54;6.50;;;3.83;;
19944;SDS011;10134;50.952;6.930;2023-01-19T01:25:22;6.57;;;4.23;;
19944;SDS011;10134;50.952;6.930;2023-01-19T01:27:50;6.03;;;3.73;;
19944;SDS011;10134;50.952;6.930;2023-01-19T01:30:19;4.30;;;2.93;;
19944;SDS011;10134;50.952;6.930;2023-01-19T01:32:46;6.03;;;3.63;;
19944;SDS011;10134;50.952;6.930;2023-01-19T01:35:14;7.80;;;4.23;;
19944;SDS011;10134;50.952;6.930;2023-01-19T01:37:42;6.73;;;3.77;;
19944;SDS011;10134;50.952;6.930;2023-01-19T01:40:13;6.17;;;3.10;;
19944;SDS011;10134;50.952;6.930;2023-01-19T01:42:42;6.87;;;3.87;;
19944;SDS011;10134;50.952;6.930;2023-01-19T01:45:21;6.87;;;3.10;;
19944;SDS011;10134;50.952;6.930;2023-01-19T01:47:50;6.40;;;3.57;;
19944;SDS011;10134;50.952;6.930;2023-01-19T01:50:22;4.90;;;3.27;;
19944;SDS011;10134;50.952;6.930;2023-01-19T01:52:57;3.87;;;2.97;;
19944;SDS011;10134;50.952;6.930;2023-01-19T01:55:44;4.50;;;3.27;;
19944;SDS011;10134;50.952;6.930;2023-01-19T01:58:14;5.10;;;3.00;;
19944;SDS011;10134;50.952;6.930;2023-01-19T02:00:42;7.57;;;3.60;;
19944;SDS011;10134;50.952;6.930;2023-01-19T02:03:28;4.77;;;3.10;;
19944;SDS011;10134;50.952;6.930;2023-01-19T02:05:58;4.03;;;2.70;;
19944;SDS011;10134;50.952;6.930;2023-01-19T02:08:40;8.80;;;3.30;;
19944;SDS011;10134;50.952;6.930;2023-01-19T02:11:30;5.50;;;3.47;;
19944;SDS011;10134;50.952;6.930;2023-01-19T02:14:17;6.07;;;2.90;;
19944;SDS011;10134;50.952;6.930;2023-01-19T02:16:47;4.70;;;2.93;;
19944;SDS011;10134;50.952;6.930;2023-01-19T02:19:33;4.73;;;3.03;;
19944;SDS011;10134;50.952;6.930;2023-01-19T02:25:05;7.70;;;3.73;;
19944;SDS011;10134;50.952;6.930;2023-01-19T02:27:32;6.17;;;2.97;;
19944;SDS011;10134;50.952;6.930;2023-01-19T02:30:00;5.00;;;3.27;;
19944;SDS011;10134;50.952;6.930;2023-01-19T02:32:29;5.80;;;3.60;;
19944;SDS011;10134;50.952;6.930;2023-01-19T02:34:56;4.13;;;3.10;;
19944;SDS011;10134;50.952;6.930;2023-01-19T02:37:24;5.83;;;3.43;;
19944;SDS011;10134;50.952;6.930;2023-01-19T02:39:54;5.00;;;3.33;;
19944;SDS011;10134;50.952;6.930;2023-01-19T02:42:26;6.57;;;3.17;;
19944;SDS011;10134;50.952;6.930;2023-01-19T02:45:00;5.30;;;3.43;;
19944;SDS011;10134;50.952;6.930;2023-01-19T02:47:36;5.47;;;3.33;;
19944;SDS011;10134;50.952;6.930;2023-01-19T02:50:26;4.33;;;3.93;;
19944;SDS011;10134;50.952;6.930;2023-01-19T02:55:47;6.63;;;4.00;;
19944;SDS011;10134;50.952;6.930;2023-01-19T03:04:18;6.63;;;4.17;;
19944;SDS011;10134;50.952;6.930;2023-01-19T03:06:54;7.47;;;3.93;;
19944;SDS011;10134;50.952;6.930;2023-01-19T03:09:40;5.30;;;4.03;;
19944;SDS011;10134;50.952;6.930;2023-01-19T03:15:24;6.53;;;4.47;;
19944;SDS011;10134;50.952;6.930;2023-01-19T03:17:57;5.40;;;3.87;;
19944;SDS011;10134;50.952;6.930;2023-01-19T03:20:26;7.97;;;4.47;;
19944;SDS011;10134;50.952;6.930;2023-01-19T03:22:56;5.90;;;4.40;;
19944;SDS011;10134;50.952;6.930;2023-01-19T03:25:28;6.73;;;4.03;;
19944;SDS011;10134;50.952;6.930;2023-01-19T03:27:59;4.93;;;3.60;;
19944;SDS011;10134;50.952;6.930;2023-01-19T03:30:28;8.03;;;4.00;;
19944;SDS011;10134;50.952;6.930;2023-01-19T03:33:06;6.60;;;4.00;;
19944;SDS011;10134;50.952;6.930;2023-01-19T03:35:40;7.23;;;4.10;;
19944;SDS011;10134;50.952;6.930;2023-01-19T03:38:12;5.67;;;4.20;;
19944;SDS011;10134;50.952;6.930;2023-01-19T03:40:42;7.00;;;4.60;;
19944;SDS011;10134;50.952;6.930;2023-01-19T03:43:10;8.30;;;4.43;;
19944;SDS011;10134;50.952;6.930;2023-01-19T03:45:41;7.77;;;4.77;;
19944;SDS011;10134;50.952;6.930;2023-01-19T03:48:09;5.93;;;4.30;;
19944;SDS011;10134;50.952;6.930;2023-01-19T03:50:38;6.87;;;4.17;;
19944;SDS011;10134;50.952;6.930;2023-01-19T03:53:07;8.43;;;4.30;;
19944;SDS011;10134;50.952;6.930;2023-01-19T03:55:37;6.87;;;3.73;;
19944;SDS011;10134;50.952;6.930;2023-01-19T03:58:06;8.77;;;4.10;;
19944;SDS011;10134;50.952;6.930;2023-01-19T04:00:34;6.07;;;4.20;;
19944;SDS011;10134;50.952;6.930;2023-01-19T04:03:02;6.67;;;4.20;;
19944;SDS011;10134;50.952;6.930;2023-01-19T04:05:31;6.10;;;3.97;;
19944;SDS011;10134;50.952;6.930;2023-01-19T04:07:58;9.37;;;4.23;;
19944;SDS011;10134;50.952;6.930;2023-01-19T04:10:26;7.53;;;3.97;;
19944;SDS011;10134;50.952;6.930;2023-01-19T04:12:57;6.50;;;4.00;;
19944;SDS011;10134;50.952;6.930;2023-01-19T04:15:26;7.37;;;4.20;;
19944;SDS011;10134;50.952;6.930;2023-01-19T04:17:58;5.80;;;4.70;;
19944;SDS011;10134;50.952;6.930;2023-01-19T04:20:26;9.33;;;4.60;;
19944;SDS011;10134;50.952;6.930;2023-01-19T04:22:57;7.17;;;3.83;;
19944;SDS011;10134;50.952;6.930;2023-01-19T04:25:26;5.30;;;4.10;;
19944;SDS011;10134;50.952;6.930;2023-01-19T04:27:54;7.80;;;3.77;;
19944;SDS011;10134;50.952;6.930;2023-01-19T04:30:24;7.50;;;4.10;;
19944;SDS011;10134;50.952;6.930;2023-01-19T04:32:52;7.53;;;3.87;;
19944;SDS011;10134;50.952;6.930;2023-01-19T04:35:21;8.80;;;4.00;;
19944;SDS011;10134;50.952;6.930;2023-01-19T04:37:48;10.23;;;4.57;;
19944;SDS011;10134;50.952;6.930;2023-01-19T04:40:15;5.17;;;3.47;;
19944;SDS011;10134;50.952;6.930;2023-01-19T04:42:43;6.73;;;3.80;;
19944;SDS011;10134;50.952;6.930;2023-01-19T04:45:12;4.40;;;3.00;;
19944;SDS011;10134;50.952;6.930;2023-01-19T04:47:39;4.50;;;3.40;;
19944;SDS011;10134;50.952;6.930;2023-01-19T04:50:09;5.33;;;3.47;;
19944;SDS011;10134;50.952;6.930;2023-01-19T04:52:37;6.67;;;3.80;;
19944;SDS011;10134;50.952;6.930;2023-01-19T04:55:05;5.73;;;3.10;;
19944;SDS011;10134;50.952;6.930;2023-01-19T04:57:33;4.23;;;3.00;;
19944;SDS011;10134;50.952;6.930;2023-01-19T05:00:00;5.37;;;3.13;;
19944;SDS011;10134;50.952;6.930;2023-01-19T05:02:28;7.80;;;3.80;;
19944;SDS011;10134;50.952;6.930;2023-01-19T05:04:56;3.47;;;2.90;;
19944;SDS011;10134;50.952;6.930;2023-01-19T05:07:23;3.67;;;2.80;;
19944;SDS011;10134;50.952;6.930;2023-01-19T05:09:50;4.53;;;2.67;;
19944;SDS011;10134;50.952;6.930;2023-01-19T05:12:18;6.40;;;3.00;;
19944;SDS011;10134;50.952;6.930;2023-01-19T05:14:46;6.87;;;3.37;;
19944;SDS011;10134;50.952;6.930;2023-01-19T05:17:13;6.50;;;2.93;;
19944;SDS011;10134;50.952;6.930;2023-01-19T05:19:40;5.27;;;3.17;;
19944;SDS011;10134;50.952;6.930;2023-01-19T05:22:07;4.50;;;3.00;;
19944;SDS011;10134;50.952;6.930;2023-01-19T05:24:35;6.30;;;2.93;;
19944;SDS011;10134;50.952;6.930;2023-01-19T05:27:02;3.67;;;2.70;;
19944;SDS011;10134;50.952;6.930;2023-01-19T05:29:29;4.40;;;3.03;;
19944;SDS011;10134;50.952;6.930;2023-01-19T05:31:57;6.90;;;3.10;;
19944;SDS011;10134;50.952;6.930;2023-01-19T05:34:24;6.40;;;3.47;;
19944;SDS011;10134;50.952;6.930;2023-01-19T05:36:51;4.97;;;3.33;;
19944;SDS011;10134;50.952;6.930;2023-01-19T05:39:19;8.30;;;3.50;;
19944;SDS011;10134;50.952;6.930;2023-01-19T05:41:46;6.97;;;3.97;;
19944;SDS011;10134;50.952;6.930;2023-01-19T05:44:13;7.00;;;3.90;;
19944;SDS011;10134;50.952;6.930;2023-01-19T05:46:41;8.33;;;4.07;;
19944;SDS011;10134;50.952;6.930;2023-01-19T05:49:08;6.10;;;3.87;;
19944;SDS011;10134;50.952;6.930;2023-01-19T05:51:37;6.83;;;4.13;;
19944;SDS011;10134;50.952;6.930;2023-01-19T05:54:04;7.17;;;4.33;;
19944;SDS011;10134;50.952;6.930;2023-01-19T05:56:33;10.57;;;4.93;;
19944;SDS011;10134;50.952;6.930;2023-01-19T05:59:01;9.47;;;4.67;;
19944;SDS011;10134;50.952;6.930;2023-01-19T06:01:28;6.03;;;3.70;;
19944;SDS011;10134;50.952;6.930;2023-01-19T06:03:55;9.37;;;4.90;;
19944;SDS011;10134;50.952;6.930;2023-01-19T06:06:23;7.23;;;4.67;;
19944;SDS011;10134;50.952;6.930;2023-01-19T06:08:50;16.30;;;6.47;;
19944;SDS011;10134;50.952;6.930;2023-01-19T06:11:17;9.60;;;6.13;;
19944;SDS011;10134;50.952;6.930;2023-01-19T06:13:45;15.03;;;5.97;;
19944;SDS011;10134;50.952;6.930;2023-01-19T06:16:13;9.30;;;5.47;;
19944;SDS011;10134;50.952;6.930;2023-01-19T06:18:40;9.47;;;5.70;;
19944;SDS011;10134;50.952;6.930;2023-01-19T06:21:09;9.57;;;5.53;;
19944;SDS011;10134;50.952;6.930;2023-01-19T06:23:38;12.77;;;6.27;;
19944;SDS011;10134;50.952;6.930;2023-01-19T06:26:05;13.93;;;6.80;;
19944;SDS011;10134;50.952;6.930;2023-01-19T06:28:32;14.00;;;7.07;;
19944;SDS011;10134;50.952;6.930;2023-01-19T06:30:59;11.90;;;6.47;;
19944;SDS011;10134;50.952;6.930;2023-01-19T06:33:27;14.13;;;6.67;;
19944;SDS011;10134;50.952;6.930;2023-01-19T06:35:54;11.97;;;6.87;;
19944;SDS011;10134;50.952;6.930;2023-01-19T06:38:22;12.10;;;6.20;;
19944;SDS011;10134;50.952;6.930;2023-01-19T06:40:54;9.57;;;5.73;;
19944;SDS011;10134;50.952;6.930;2023-01-19T06:43:24;9.87;;;6.30;;
19944;SDS011;10134;50.952;6.930;2023-01-19T06:45:51;12.83;;;6.50;;
19944;SDS011;10134;50.952;6.930;2023-01-19T06:48:19;10.33;;;6.40;;
19944;SDS011;10134;50.952;6.930;2023-01-19T06:50:47;8.27;;;5.67;;
19944;SDS011;10134;50.952;6.930;2023-01-19T06:53:15;11.17;;;6.40;;
19944;SDS011;10134;50.952;6.930;2023-01-19T06:55:43;11.30;;;6.47;;
19944;SDS011;10134;50.952;6.930;2023-01-19T06:58:10;10.30;;;5.87;;
19944;SDS011;10134;50.952;6.930;2023-01-19T07:00:38;9.50;;;6.50;;
19944;SDS011;10134;50.952;6.930;2023-01-19T07:03:06;9.63;;;5.80;;
19944;SDS011;10134;50.952;6.930;2023-01-19T07:05:34;9.67;;;6.20;;
19944;SDS011;10134;50.952;6.930;2023-01-19T07:08:01;10.73;;;6.70;;
19944;SDS011;10134;50.952;6.930;2023-01-19T07:10:29;9.93;;;6.07;;
19944;SDS011;10134;50.952;6.930;2023-01-19T07:13:17;10.27;;;6.07;;
19944;SDS011;10134;50.952;6.930;2023-01-19T07:15:44;13.27;;;7.30;;
19944;SDS011;10134;50.952;6.930;2023-01-19T07:18:11;13.77;;;7.37;;
19944;SDS011;10134;50.952;6.930;2023-01-19T07:20:39;12.50;;;7.17;;
19944;SDS011;10134;50.952;6.930;2023-01-19T07:23:06;10.90;;;6.80;;
19944;SDS011;10134;50.952;6.930;2023-01-19T07:25:33;12.13;;;7.17;;
19944;SDS011;10134;50.952;6.930;2023-01-19T07:28:01;10.90;;;6.90;;
19944;SDS011;10134;50.952;6.930;2023-01-19T07:30:30;12.77;;;7.57;;
19944;SDS011;10134;50.952;6.930;2023-01-19T07:32:57;13.57;;;7.00;;
19944;SDS011;10134;50.952;6.930;2023-01-19T07:35:25;14.70;;;8.03;;
19944;SDS011;10134;50.952;6.930;2023-01-19T07:37:52;12.10;;;7.13;;
19944;SDS011;10134;50.952;6.930;2023-01-19T07:40:20;12.73;;;6.83;;
19944;SDS011;10134;50.952;6.930;2023-01-19T07:42:49;14.90;;;8.07;;
19944;SDS011;10134;50.952;6.930;2023-01-19T07:45:18;11.67;;;7.07;;
19944;SDS011;10134;50.952;6.930;2023-01-19T07:47:47;13.53;;;7.10;;
19944;SDS011;10134;50.952;6.930;2023-01-19T07:50:16;11.73;;;7.73;;
19944;SDS011;10134;50.952;6.930;2023-01-19T07:52:46;16.27;;;7.83;;
19944;SDS011;10134;50.952;6.930;2023-01-19T07:55:19;10.27;;;6.80;;
19944;SDS011;10134;50.952;6.930;2023-01-19T07:57:47;11.30;;;7.33;;
19944;SDS011;10134;50.952;6.930;2023-01-19T08:00:17;12.07;;;7.03;;
19944;SDS011;10134;50.952;6.930;2023-01-19T08:02:47;11.80;;;8.20;;
19944;SDS011;10134;50.952;6.930;2023-01-19T08:05:17;14.90;;;8.47;;
19944;SDS011;10134;50.952;6.930;2023-01-19T08:07:45;20.63;;;11.67;;
19944;SDS011;10134;50.952;6.930;2023-01-19T08:10:14;13.87;;;8.50;;
19944;SDS011;10134;50.952;6.930;2023-01-19T08:12:42;13.97;;;7.53;;
19944;SDS011;10134;50.952;6.930;2023-01-19T08:15:12;15.13;;;8.23;;
19944;SDS011;10134;50.952;6.930;2023-01-19T08:17:40;13.53;;;7.37;;
19944;SDS011;10134;50.952;6.930;2023-01-19T08:20:07;13.13;;;7.73;;
19944;SDS011;10134;50.952;6.930;2023-01-19T08:22:35;12.33;;;7.70;;
19944;SDS011;10134;50.952;6.930;2023-01-19T08:25:05;15.23;;;8.10;;
19944;SDS011;10134;50.952;6.930;2023-01-19T08:27:33;13.87;;;8.37;;
19944;SDS011;10134;50.952;6.930;2023-01-19T08:30:01;14.53;;;8.57;;
19944;SDS011;10134;50.952;6.930;2023-01-19T08:32:28;15.53;;;8.73;;
19944;SDS011;10134;50.952;6.930;2023-01-19T08:34:55;14.17;;;7.67;;
19944;SDS011;10134;50.952;6.930;2023-01-19T08:37:23;13.93;;;8.23;;
19944;SDS011;10134;50.952;6.930;2023-01-19T08:39:50;17.70;;;8.17;;
19944;SDS011;10134;50.952;6.930;2023-01-19T08:42:19;15.97;;;8.30;;
19944;SDS011;10134;50.952;6.930;2023-01-19T08:44:46;19.90;;;8.80;;
19944;SDS011;10134;50.952;6.930;2023-01-19T08:47:23;14.60;;;9.00;;
19944;SDS011;10134;50.952;6.930;2023-01-19T08:49:51;16.50;;;8.67;;
19944;SDS011;10134;50.952;6.930;2023-01-19T08:52:18;19.33;;;8.33;;
19944;SDS011;10134;50.952;6.930;2023-01-19T08:54:45;16.63;;;7.83;;
19944;SDS011;10134;50.952;6.930;2023-01-19T08:57:13;14.83;;;8.53;;
19944;SDS011;10134;50.952;6.930;2023-01-19T08:59:41;13.73;;;7.87;;
19944;SDS011;10134;50.952;6.930;2023-01-19T09:02:09;14.13;;;8.23;;
19944;SDS011;10134;50.952;6.930;2023-01-19T09:04:36;12.43;;;7.00;;
19944;SDS011;10134;50.952;6.930;2023-01-19T09:07:04;19.87;;;8.07;;
19944;SDS011;10134;50.952;6.930;2023-01-19T09:09:36;14.03;;;8.43;;
19944;SDS011;10134;50.952;6.930;2023-01-19T09:12:05;17.73;;;8.83;;
19944;SDS011;10134;50.952;6.930;2023-01-19T09:14:33;16.67;;;9.73;;
19944;SDS011;10134;50.952;6.930;2023-01-19T09:17:00;15.33;;;8.73;;
19944;SDS011;10134;50.952;6.930;2023-01-19T09:19:28;18.80;;;9.27;;
19944;SDS011;10134;50.952;6.930;2023-01-19T09:21:55;16.37;;;8.67;;
19944;SDS011;10134;50.952;6.930;2023-01-19T09:24:24;18.93;;;9.63;;
19944;SDS011;10134;50.952;6.930;2023-01-19T09:26:52;16.33;;;10.27;;
19944;SDS011;10134;50.952;6.930;2023-01-19T09:29:19;17.13;;;9.53;;
19944;SDS011;10134;50.952;6.930;2023-01-19T09:31:47;20.27;;;9.37;;
19944;SDS011;10134;50.952;6.930;2023-01-19T09:34:14;17.37;;;10.40;;
19944;SDS011;10134;50.952;6.930;2023-01-19T09:36:41;16.93;;;9.80;;
19944;SDS011;10134;50.952;6.930;2023-01-19T09:39:09;18.43;;;9.97;;
19944;SDS011;10134;50.952;6.930;2023-01-19T09:41:36;24.33;;;9.77;;
19944;SDS011;10134;50.952;6.930;2023-01-19T09:44:07;17.10;;;9.47;;
19944;SDS011;10134;50.952;6.930;2023-01-19T09:46:43;18.13;;;9.63;;
19944;SDS011;10134;50.952;6.930;2023-01-19T09:52:38;19.63;;;10.97;;
19944;SDS011;10134;50.952;6.930;2023-01-19T09:55:18;19.37;;;9.97;;
19944;SDS011;10134;50.952;6.930;2023-01-19T09:57:48;20.60;;;11.20;;
19944;SDS011;10134;50.952;6.930;2023-01-19T10:00:16;19.20;;;10.87;;
19944;SDS011;10134;50.952;6.930;2023-01-19T10:02:48;24.97;;;13.50;;
19944;SDS011;10134;50.952;6.930;2023-01-19T10:05:41;20.53;;;10.53;;
19944;SDS011;10134;50.952;6.930;2023-01-19T10:11:13;22.03;;;11.13;;
19944;SDS011;10134;50.952;6.930;2023-01-19T10:13:48;26.93;;;11.37;;
19944;SDS011;10134;50.952;6.930;2023-01-19T10:18:58;19.43;;;10.90;;
19944;SDS011;10134;50.952;6.930;2023-01-19T10:21:48;21.93;;;10.97;;
19944;SDS011;10134;50.952;6.930;2023-01-19T10:24:20;20.27;;;10.20;;
19944;SDS011;10134;50.952;6.930;2023-01-19T10:26:53;23.87;;;11.10;;
19944;SDS011;10134;50.952;6.930;2023-01-19T10:29:35;29.47;;;12.07;;
19944;SDS011;10134;50.952;6.930;2023-01-19T10:34:35;25.37;;;10.90;;
19944;SDS011;10134;50.952;6.930;2023-01-19T10:37:03;21.80;;;11.37;;
19944;SDS011;10134;50.952;6.930;2023-01-19T10:39:42;22.13;;;11.23;;
19944;SDS011;10134;50.952;6.930;2023-01-19T10:42:12;21.77;;;11.57;;
19944;SDS011;10134;50.952;6.930;2023-01-19T10:44:43;24.97;;;10.97;;
19944;SDS011;10134;50.952;6.930;2023-01-19T10:47:15;22.23;;;11.60;;
19944;SDS011;10134;50.952;6.930;2023-01-19T10:49:49;26.97;;;12.23;;
19944;SDS011;10134;50.952;6.930;2023-01-19T10:52:24;19.43;;;10.37;;
19944;SDS011;10134;50.952;6.930;2023-01-19T10:54:57;21.73;;;10.77;;
19944;SDS011;10134;50.952;6.930;2023-01-19T10:57:29;20.13;;;10.97;;
19944;SDS011;10134;50.952;6.930;2023-01-19T11:00:01;26.00;;;12.33;;
19944;SDS011;10134;50.952;6.930;2023-01-19T11:02:31;24.73;;;12.43;;
19944;SDS011;10134;50.952;6.930;2023-01-19T11:05:00;21.27;;;11.43;;
19944;SDS011;10134;50.952;6.930;2023-01-19T11:07:48;20.90;;;11.93;;
19944;SDS011;10134;50.952;6.930;2023-01-19T11:12:58;26.67;;;11.37;;
19944;SDS011;10134;50.952;6.930;2023-01-19T11:15:29;28.60;;;10.83;;
19944;SDS011;10134;50.952;6.930;2023-01-19T11:18:00;22.13;;;11.47;;
19944;SDS011;10134;50.952;6.930;2023-01-19T11:20:50;22.40;;;11.33;;
19944;SDS011;10134;50.952;6.930;2023-01-19T11:23:25;28.73;;;11.93;;
19944;SDS011;10134;50.952;6.930;2023-01-19T11:25:59;22.80;;;10.83;;
19944;SDS011;10134;50.952;6.930;2023-01-19T11:33:40;24.10;;;11.20;;
19944;SDS011;10134;50.952;6.930;2023-01-19T11:36:24;21.00;;;10.50;;
19944;SDS011;10134;50.952;6.930;2023-01-19T11:38:56;22.40;;;11.57;;
19944;SDS011;10134;50.952;6.930;2023-01-19T11:41:27;25.70;;;11.70;;
19944;SDS011;10134;50.952;6.930;2023-01-19T11:43:56;21.70;;;10.50;;
19944;SDS011;10134;50.952;6.930;2023-01-19T11:46:30;23.20;;;11.70;;
19944;SDS011;10134;50.952;6.930;2023-01-19T11:51:54;23.47;;;10.63;;
19944;SDS011;10134;50.952;6.930;2023-01-19T11:54:51;20.93;;;10.60;;
19944;SDS011;10134;50.952;6.930;2023-01-19T11:57:27;25.47;;;10.60;;
19944;SDS011;10134;50.952;6.930;2023-01-19T11:59:54;26.97;;;10.77;;
19944;SDS011;10134;50.952;6.930;2023-01-19T12:02:28;22.80;;;10.20;;
19944;SDS011;10134;50.952;6.930;2023-01-19T12:05:09;23.20;;;10.33;;
19944;SDS011;10134;50.952;6.930;2023-01-19T12:07:40;17.73;;;10.20;;
19944;SDS011;10134;50.952;6.930;2023-01-19T12:10:15;20.70;;;10.10;;
19944;SDS011;10134;50.952;6.930;2023-01-19T12:12:49;22.73;;;10.07;;
19944;SDS011;10134;50.952;6.930;2023-01-19T12:15:20;22.37;;;10.47;;
19944;SDS011;10134;50.952;6.930;2023-01-19T12:18:04;21.07;;;10.23;;
19944;SDS011;10134;50.952;6.930;2023-01-19T12:20:37;24.70;;;10.33;;
19944;SDS011;10134;50.952;6.930;2023-01-19T12:25:43;22.07;;;11.23;;
19944;SDS011;10134;50.952;6.930;2023-01-19T12:28:22;31.87;;;11.63;;
19944;SDS011;10134;50.952;6.930;2023-01-19T12:30:58;24.67;;;10.93;;
19944;SDS011;10134;50.952;6.930;2023-01-19T12:41:20;15.53;;;9.53;;
19944;SDS011;10134;50.952;6.930;2023-01-19T12:44:13;21.57;;;11.30;;
19944;SDS011;10134;50.952;6.930;2023-01-19T13:15:49;24.83;;;9.23;;
19944;SDS011;10134;50.952;6.930;2023-01-19T13:18:23;20.07;;;9.80;;
19944;SDS011;10134;50.952;6.930;2023-01-19T13:26:18;19.67;;;9.33;;
19944;SDS011;10134;50.952;6.930;2023-01-19T13:28:52;19.87;;;9.77;;
19944;SDS011;10134;50.952;6.930;2023-01-19T13:31:24;22.17;;;9.67;;
19944;SDS011;10134;50.952;6.930;2023-01-19T13:33:56;23.43;;;9.67;;
19944;SDS011;10134;50.952;6.930;2023-01-19T13:36:26;25.30;;;9.50;;
19944;SDS011;10134;50.952;6.930;2023-01-19T13:38:55;20.07;;;10.23;;
19944;SDS011;10134;50.952;6.930;2023-01-19T13:41:27;21.03;;;10.07;;
19944;SDS011;10134;50.952;6.930;2023-01-19T13:44:40;20.23;;;9.60;;
19944;SDS011;10134;50.952;6.930;2023-01-19T13:46:52;23.10;;;9.87;;
19944;SDS011;10134;50.952;6.930;2023-01-19T13:49:25;16.90;;;9.40;;
19944;SDS011;10134;50.952;6.930;2023-01-19T13:52:33;18.33;;;9.50;;
19944;SDS011;10134;50.952;6.930;2023-01-19T13:54:56;17.87;;;9.83;;
19944;SDS011;10134;50.952;6.930;2023-01-19T14:02:40;20.20;;;9.97;;
19944;SDS011;10134;50.952;6.930;2023-01-19T14:05:15;18.17;;;9.77;;
19944;SDS011;10134;50.952;6.930;2023-01-19T14:07:59;19.30;;;9.33;;
19944;SDS011;10134;50.952;6.930;2023-01-19T14:11:00;18.77;;;8.97;;
19944;SDS011;10134;50.952;6.930;2023-01-19T14:13:32;18.27;;;9.27;;
19944;SDS011;10134;50.952;6.930;2023-01-19T14:18:38;17.43;;;8.57;;
19944;SDS011;10134;50.952;6.930;2023-01-19T14:21:09;23.73;;;8.33;;
19944;SDS011;10134;50.952;6.930;2023-01-19T14:23:49;19.40;;;9.50;;
19944;SDS011;10134;50.952;6.930;2023-01-19T14:40:01;14.27;;;8.33;;
19944;SDS011;10134;50.952;6.930;2023-01-19T14:42:34;14.07;;;8.53;;
19944;SDS011;10134;50.952;6.930;2023-01-19T14:45:06;16.77;;;9.23;;
19944;SDS011;10134;50.952;6.930;2023-01-19T14:47:42;13.93;;;8.73;;
19944;SDS011;10134;50.952;6.930;2023-01-19T14:50:28;15.70;;;8.87;;
19944;SDS011;10134;50.952;6.930;2023-01-19T14:53:00;16.80;;;9.57;;
19944;SDS011;10134;50.952;6.930;2023-01-19T14:55:32;13.70;;;8.50;;
19944;SDS011;10134;50.952;6.930;2023-01-19T14:58:10;16.70;;;8.00;;
19944;SDS011;10134;50.952;6.930;2023-01-19T15:00:39;19.00;;;9.00;;
19944;SDS011;10134;50.952;6.930;2023-01-19T15:03:08;19.07;;;9.47;;
19944;SDS011;10134;50.952;6.930;2023-01-19T15:05:39;16.73;;;8.73;;
19944;SDS011;10134;50.952;6.930;2023-01-19T15:08:14;16.63;;;8.30;;
19944;SDS011;10134;50.952;6.930;2023-01-19T15:11:01;18.10;;;9.10;;
19944;SDS011;10134;50.952;6.930;2023-01-19T15:13:37;19.33;;;8.03;;
19944;SDS011;10134;50.952;6.930;2023-01-19T15:16:09;13.67;;;7.60;;
19944;SDS011;10134;50.952;6.930;2023-01-19T15:18:37;21.10;;;8.00;;
19944;SDS011;10134;50.952;6.930;2023-01-19T15:21:04;14.40;;;8.93;;
19944;SDS011;10134;50.952;6.930;2023-01-19T15:23:32;12.90;;;7.87;;
19944;SDS011;10134;50.952;6.930;2023-01-19T15:26:00;15.67;;;7.03;;
19944;SDS011;10134;50.952;6.930;2023-01-19T15:28:29;13.27;;;7.57;;
19944;SDS011;10134;50.952;6.930;2023-01-19T15:30:58;14.43;;;7.30;;
19944;SDS011;10134;50.952;6.930;2023-01-19T15:33:26;14.97;;;7.93;;
19944;SDS011;10134;50.952;6.930;2023-01-19T15:35:58;12.00;;;7.67;;
19944;SDS011;10134;50.952;6.930;2023-01-19T15:38:25;12.63;;;7.40;;
19944;SDS011;10134;50.952;6.930;2023-01-19T15:40:54;16.93;;;7.57;;
19944;SDS011;10134;50.952;6.930;2023-01-19T15:43:21;15.70;;;7.43;;
19944;SDS011;10134;50.952;6.930;2023-01-19T15:45:49;15.27;;;7.43;;
19944;SDS011;10134;50.952;6.930;2023-01-19T15:48:23;16.43;;;7.70;;
19944;SDS011;10134;50.952;6.930;2023-01-19T15:50:51;17.97;;;8.67;;
19944;SDS011;10134;50.952;6.930;2023-01-19T15:53:19;14.73;;;7.80;;
19944;SDS011;10134;50.952;6.930;2023-01-19T15:55:50;11.10;;;6.40;;
19944;SDS011;10134;50.952;6.930;2023-01-19T15:58:18;13.60;;;7.40;;
19944;SDS011;10134;50.952;6.930;2023-01-19T16:00:54;11.53;;;6.30;;
19944;SDS011;10134;50.952;6.930;2023-01-19T16:03:23;12.27;;;7.33;;
19944;SDS011;10134;50.952;6.930;2023-01-19T16:05:52;14.03;;;7.73;;
19944;SDS011;10134;50.952;6.930;2023-01-19T16:08:19;17.23;;;8.07;;
19944;SDS011;10134;50.952;6.930;2023-01-19T16:10:47;16.13;;;7.40;;
19944;SDS011;10134;50.952;6.930;2023-01-19T16:13:14;15.50;;;7.57;;
19944;SDS011;10134;50.952;6.930;2023-01-19T16:15:42;12.03;;;6.87;;
19944;SDS011;10134;50.952;6.930;2023-01-19T16:18:09;13.00;;;6.73;;
19944;SDS011;10134;50.952;6.930;2023-01-19T16:20:37;13.67;;;7.00;;
19944;SDS011;10134;50.952;6.930;2023-01-19T16:23:04;10.40;;;6.47;;
19944;SDS011;10134;50.952;6.930;2023-01-19T16:25:54;7.97;;;5.90;;
19944;SDS011;10134;50.952;6.930;2023-01-19T16:28:23;10.30;;;6.60;;
19944;SDS011;10134;50.952;6.930;2023-01-19T16:30:51;11.70;;;6.77;;
19944;SDS011;10134;50.952;6.930;2023-01-19T16:33:19;11.17;;;6.17;;
19944;SDS011;10134;50.952;6.930;2023-01-19T16:35:46;13.03;;;6.70;;
19944;SDS011;10134;50.952;6.930;2023-01-19T16:38:13;17.73;;;6.47;;
19944;SDS011;10134;50.952;6.930;2023-01-19T16:40:44;10.50;;;5.03;;
19944;SDS011;10134;50.952;6.930;2023-01-19T16:43:12;16.03;;;6.53;;